Time;durP1;ratioP1;P1;durP2;ratioP2;P2;SDS_P1;SDS_P2;PMS_P1;PMS_P2;Temp;Humidity;BMP_temperature;BMP_pressure;BME280_temperature;BME280_humidity;BME280_pressure;Samples;Min_cycle;Max_cycle;Signal;HPM_P1;HPM_P2
2022/07/17 00:00:20;;;;;;;4.03;3.63;;;;;;;27.41;49.00;99573.47;5052241;28;20197;-76
2022/07/17 00:02:47;;;;;;;3.90;3.70;;;;;;;27.44;48.97;99567.41;5051884;28;20665;-76
2022/07/17 00:05:14;;;;;;;3.57;3.40;;;;;;;27.46;49.00;99573.38;5052147;28;20197;-77
2022/07/17 00:07:41;;;;;;;3.90;3.70;;;;;;;27.49;48.79;99578.22;5052148;28;20200;-77
2022/07/17 00:10:09;;;;;;;3.60;3.30;;;;;;;27.52;48.63;99572.97;5051800;28;20660;-77
2022/07/17 00:12:36;;;;;;;4.10;3.70;;;;;;;27.51;48.93;99579.53;5052063;28;20224;-77
2022/07/17 00:15:04;;;;;;;3.90;3.80;;;;;;;27.50;48.63;99588.84;5054347;28;20215;-78
2022/07/17 00:17:31;;;;;;;6.23;3.20;;;;;;;27.46;48.91;99587.00;5055895;28;20197;-77
2022/07/17 00:19:58;;;;;;;3.43;3.33;;;;;;;27.47;48.78;99588.63;5056169;28;20250;-78
2022/07/17 00:22:25;;;;;;;3.63;3.33;;;;;;;27.47;48.46;99588.63;5055640;28;20261;-78
2022/07/17 00:24:51;;;;;;;3.57;3.37;;;;;;;27.47;49.23;99586.72;5056284;28;20189;-78
2022/07/17 00:27:18;;;;;;;3.47;3.17;;;;;;;27.43;49.04;99588.44;5055691;28;20546;-78
2022/07/17 00:29:45;;;;;;;4.33;3.90;;;;;;;27.44;48.91;99591.97;5055547;28;20192;-78
2022/07/17 00:32:13;;;;;;;3.73;3.37;;;;;;;27.42;48.39;99589.56;5055769;28;20228;-77
2022/07/17 00:34:40;;;;;;;3.73;3.50;;;;;;;27.34;48.49;99590.25;5055895;28;20653;-78
2022/07/17 00:37:06;;;;;;;3.90;3.60;;;;;;;27.34;48.37;99587.53;5055447;28;20196;-77
2022/07/17 00:39:33;;;;;;;3.93;3.63;;;;;;;27.30;48.68;99583.78;5055404;28;20196;-78
2022/07/17 00:42:00;;;;;;;4.03;3.63;;;;;;;27.36;49.37;99589.97;5055144;28;20661;-76
2022/07/17 00:44:28;;;;;;;3.57;3.37;;;;;;;27.37;49.37;99588.84;5055519;28;20211;-76
2022/07/17 00:46:54;;;;;;;4.23;3.83;;;;;;;27.39;48.43;99597.50;5055282;28;20655;-78
2022/07/17 00:49:23;;;;;;;3.57;3.37;;;;;;;27.33;48.49;99601.47;5055240;28;20607;-79
2022/07/17 00:51:49;;;;;;;3.43;3.17;;;;;;;27.33;48.50;99596.00;5055190;28;20274;-78
2022/07/17 00:54:18;;;;;;;3.60;3.30;;;;;;;27.25;48.19;99608.44;5055445;28;20200;-79
2022/07/17 00:56:48;;;;;;;4.50;3.50;;;;;;;27.07;49.21;99590.19;5055669;28;20254;-80
2022/07/17 00:59:16;;;;;;;3.73;3.33;;;;;;;27.18;49.28;99604.44;5055011;28;20225;-76
2022/07/17 01:01:42;;;;;;;9.37;4.00;;;;;;;27.16;48.71;99601.22;5054974;28;20668;-75
2022/07/17 01:04:09;;;;;;;3.50;3.20;;;;;;;27.18;49.50;99604.44;5055889;28;20299;-75
2022/07/17 01:06:37;;;;;;;4.63;3.90;;;;;;;27.22;49.28;99591.84;5054873;28;20203;-75
2022/07/17 01:09:04;;;;;;;3.50;3.40;;;;;;;27.29;49.00;99600.47;5054880;28;20587;-75
2022/07/17 01:11:31;;;;;;;4.97;3.70;;;;;;;27.30;49.27;99591.97;5055649;28;20220;-75
2022/07/17 01:13:58;;;;;;;3.90;3.70;;;;;;;27.33;49.04;99601.47;5055234;28;20193;-76
2022/07/17 01:16:25;;;;;;;6.23;4.00;;;;;;;27.36;48.99;99595.41;5054754;28;20733;-76
2022/07/17 01:18:53;;;;;;;3.63;3.43;;;;;;;27.39;49.10;99601.06;5055188;28;20242;-77
2022/07/17 01:21:21;;;;;;;4.50;4.10;;;;;;;27.43;49.11;99609.44;5054664;28;20255;-76
2022/07/17 01:23:48;;;;;;;4.00;3.67;;;;;;;27.45;48.57;99616.25;5054680;28;20192;-77
2022/07/17 01:26:14;;;;;;;4.43;4.00;;;;;;;27.16;49.95;99617.59;5053407;28;20192;-76
2022/07/17 01:28:42;;;;;;;4.00;3.80;;;;;;;27.20;49.73;99616.72;5054944;28;20204;-75
2022/07/17 01:31:08;;;;;;;3.53;3.23;;;;;;;27.22;49.39;99610.94;5054737;28;20282;-75
2022/07/17 01:33:35;;;;;;;3.83;3.57;;;;;;;27.26;49.44;99609.25;5054702;28;20199;-74
2022/07/17 01:36:02;;;;;;;4.10;3.90;;;;;;;27.36;49.36;99622.72;5055347;28;20254;-75
2022/07/17 01:38:30;;;;;;;3.87;3.60;;;;;;;27.41;49.19;99625.31;5054376;28;20741;-75
2022/07/17 01:40:56;;;;;;;3.83;3.63;;;;;;;27.35;49.74;99621.06;5054388;28;20196;-75
2022/07/17 01:43:23;;;;;;;5.00;4.53;;;;;;;27.23;50.38;99618.06;5054758;28;20644;-75
2022/07/17 01:45:50;;;;;;;4.47;4.00;;;;;;;27.30;50.06;99623.91;5054206;28;20192;-73
2022/07/17 01:48:25;;;;;;;4.77;4.37;;;;;;;27.28;50.49;99620.66;5054522;28;20201;-73
2022/07/17 01:50:51;;;;;;;5.30;4.80;;;;;;;27.25;50.58;99632.19;5054866;28;20597;-73
2022/07/17 01:53:18;;;;;;;7.67;4.37;;;;;;;27.24;50.40;99636.03;5054101;28;20197;-72
2022/07/17 01:55:46;;;;;;;5.47;4.83;;;;;;;27.21;50.89;99631.16;5054039;28;20254;-72
2022/07/17 01:58:13;;;;;;;4.23;3.90;;;;;;;27.24;51.14;99636.03;5054195;28;20200;-72
2022/07/17 02:00:40;;;;;;;4.80;4.37;;;;;;;27.30;50.83;99635.63;5054184;28;20266;-72
2022/07/17 02:03:07;;;;;;;6.23;4.83;;;;;;;27.30;51.16;99629.34;5054141;28;20209;-72
2022/07/17 02:05:34;;;;;;;5.17;4.67;;;;;;;27.28;51.13;99631.59;5054163;28;20204;-72
2022/07/17 02:08:01;;;;;;;5.27;4.87;;;;;;;27.23;51.43;99628.97;5054100;28;20196;-72
2022/07/17 02:10:28;;;;;;;5.10;4.60;;;;;;;27.19;51.45;99630.63;5054038;28;20189;-72
2022/07/17 02:12:57;;;;;;;7.70;5.70;;;;;;;27.17;52.16;99635.56;5053655;28;20249;-73
2022/07/17 02:15:24;;;;;;;7.07;5.30;;;;;;;27.08;52.45;99634.66;5053722;28;20193;-73
2022/07/17 02:17:51;;;;;;;6.27;4.97;;;;;;;26.97;52.47;99630.47;5054491;28;20281;-72
2022/07/17 02:20:18;;;;;;;6.47;5.40;;;;;;;26.89;52.92;99629.25;5054420;28;20602;-72
2022/07/17 02:22:45;;;;;;;5.67;5.17;;;;;;;26.84;53.50;99623.06;5053501;28;20200;-72
2022/07/17 02:25:13;;;;;;;5.40;5.20;;;;;;;26.77;53.32;99631.66;5053491;28;20720;-72
2022/07/17 02:27:41;;;;;;;5.80;5.30;;;;;;;26.65;54.01;99633.19;5053432;28;20254;-73
2022/07/17 02:30:12;;;;;;;5.17;4.67;;;;;;;26.49;54.73;99639.97;5053701;28;20195;-73
2022/07/17 02:32:40;;;;;;;6.40;5.13;;;;;;;26.33;55.18;99647.56;5053304;28;20215;-73
2022/07/17 02:35:08;;;;;;;6.00;5.60;;;;;;;26.02;56.29;99626.50;5053637;28;20189;-74
2022/07/17 02:37:35;;;;;;;6.10;5.43;;;;;;;25.79;57.23;99636.31;5054122;28;20197;-74
2022/07/17 02:40:02;;;;;;;5.90;5.50;;;;;;;25.45;58.20;99634.81;5053242;28;20196;-74
2022/07/17 02:42:30;;;;;;;5.67;5.37;;;;;;;25.57;58.35;99643.38;5053320;28;20228;-74
2022/07/17 02:44:57;;;;;;;6.27;5.80;;;;;;;25.40;59.82;99634.88;5053067;28;20250;-75
2022/07/17 02:47:26;;;;;;;5.30;5.00;;;;;;;25.43;59.03;99642.47;5053886;28;20188;-74
2022/07/17 02:49:53;;;;;;;5.90;5.50;;;;;;;25.62;58.48;99644.13;5052990;28;20193;-74
2022/07/17 02:52:21;;;;;;;5.57;5.27;;;;;;;25.65;58.67;99645.47;5053203;28;20221;-74
2022/07/17 02:54:48;;;;;;;6.30;5.90;;;;;;;25.51;59.02;99650.00;5052824;28;20197;-73
2022/07/17 02:57:15;;;;;;;5.83;5.43;;;;;;;25.31;59.48;99648.28;5052891;28;20196;-73
2022/07/17 02:59:42;;;;;;;6.27;5.80;;;;;;;25.22;60.20;99638.28;5052837;28;20246;-73
2022/07/17 03:02:09;;;;;;;6.27;5.77;;;;;;;25.21;59.97;99642.94;5053583;28;20638;-73
2022/07/17 03:04:37;;;;;;;6.50;6.03;;;;;;;25.10;60.02;99643.31;5052939;28;20199;-74
2022/07/17 03:07:04;;;;;;;6.47;6.17;;;;;;;25.10;60.02;99644.13;5052643;28;20246;-74
2022/07/17 03:09:31;;;;;;;6.13;5.53;;;;;;;25.18;60.33;99645.41;5053749;28;20200;-74
2022/07/17 03:11:58;;;;;;;6.23;5.67;;;;;;;25.34;59.83;99657.78;5052493;28;20281;-73
2022/07/17 03:14:25;;;;;;;6.03;5.43;;;;;;;25.47;59.43;99654.41;5053726;28;20243;-73
2022/07/17 03:16:51;;;;;;;6.07;5.53;;;;;;;25.43;59.39;99654.13;5053451;28;20196;-73
2022/07/17 03:19:18;;;;;;;7.63;5.60;;;;;;;25.42;59.51;99657.97;5053648;28;20250;-73
2022/07/17 03:21:47;;;;;;;5.43;4.97;;;;;;;25.33;59.74;99658.88;5052141;28;20675;-73
2022/07/17 03:24:13;;;;;;;5.60;5.30;;;;;;;25.36;59.69;99663.75;5052383;28;20545;-74
2022/07/17 03:26:40;;;;;;;5.70;5.40;;;;;;;25.37;59.29;99671.63;5052379;28;20199;-74
2022/07/17 03:29:07;;;;;;;5.33;5.03;;;;;;;25.49;59.28;99668.50;5052908;28;20188;-74
2022/07/17 03:31:34;;;;;;;5.40;5.00;;;;;;;25.85;57.35;99667.00;5052779;28;20200;-74
2022/07/17 03:34:00;;;;;;;5.07;4.63;;;;;;;25.94;57.02;99678.88;5053105;28;20608;-73
2022/07/17 03:36:27;;;;;;;5.13;4.60;;;;;;;25.85;56.81;99677.88;5052474;28;20246;-73
2022/07/17 03:38:55;;;;;;;5.43;5.00;;;;;;;25.77;56.84;99681.25;5052437;28;20196;-73
2022/07/17 03:41:22;;;;;;;5.63;5.13;;;;;;;25.80;56.50;99686.13;5052168;28;20657;-74
2022/07/17 03:43:49;;;;;;;5.63;4.93;;;;;;;25.85;56.26;99683.31;5052815;28;20346;-74
2022/07/17 03:46:15;;;;;;;4.57;4.37;;;;;;;25.86;56.44;99680.31;5052934;28;20254;-74
2022/07/17 03:48:42;;;;;;;5.40;5.10;;;;;;;25.66;56.33;99677.00;5051756;28;20266;-74
2022/07/17 03:51:09;;;;;;;9.03;5.30;;;;;;;25.52;56.81;99684.25;5051915;28;20757;-74
2022/07/17 03:53:36;;;;;;;5.17;4.63;;;;;;;25.37;57.52;99687.13;5052109;28;20228;-73
2022/07/17 03:56:05;;;;;;;4.50;4.20;;;;;;;25.46;56.87;99682.66;5051889;28;20657;-73
2022/07/17 03:58:32;;;;;;;4.30;4.03;;;;;;;25.53;57.21;99696.75;5051941;28;20232;-73
2022/07/17 04:00:59;;;;;;;4.97;4.17;;;;;;;25.83;56.60;99696.41;5051860;28;20732;-73
2022/07/17 04:03:26;;;;;;;6.80;4.63;;;;;;;25.87;55.51;99700.16;5052127;28;20285;-72
2022/07/17 04:05:53;;;;;;;4.97;4.53;;;;;;;25.89;55.34;99701.50;5051732;28;20223;-72
2022/07/17 04:08:20;;;;;;;4.60;4.17;;;;;;;25.89;55.13;99700.69;5052054;28;20193;-73
2022/07/17 04:10:47;;;;;;;4.00;3.80;;;;;;;26.15;54.69;99699.31;5051903;28;20192;-73
2022/07/17 04:13:15;;;;;;;4.57;4.17;;;;;;;26.58;53.62;99703.66;5052206;28;20248;-74
2022/07/17 04:15:52;;;;;;;4.23;4.03;;;;;;;27.26;50.80;99721.09;5051712;28;20660;-74
2022/07/17 04:18:20;;;;;;;5.53;3.87;;;;;;;28.15;47.79;99718.59;5052305;28;20189;-73
2022/07/17 04:20:47;;;;;;;4.73;4.43;;;;;;;28.87;45.11;99724.91;5051668;28;20664;-73
2022/07/17 04:23:14;;;;;;;4.30;4.00;;;;;;;29.61;43.63;99735.13;5051713;28;20201;-73
2022/07/17 04:25:41;;;;;;;4.40;3.40;;;;;;;30.09;41.84;99741.41;5051657;28;20200;-73
2022/07/17 04:28:09;;;;;;;3.93;3.70;;;;;;;30.74;40.26;99736.75;5051565;28;20197;-73
2022/07/17 04:30:38;;;;;;;3.77;3.40;;;;;;;31.07;38.40;99746.13;5051852;28;20204;-73
2022/07/17 04:33:05;;;;;;;3.67;3.47;;;;;;;31.40;37.83;99738.97;5052408;28;20294;-73
2022/07/17 04:35:32;;;;;;;3.43;3.13;;;;;;;31.51;37.33;99739.44;5051818;28;20242;-73
2022/07/17 04:37:58;;;;;;;3.40;3.10;;;;;;;32.00;36.17;99744.28;5051516;28;20242;-73
2022/07/17 04:40:26;;;;;;;4.63;3.30;;;;;;;32.50;34.94;99754.22;5052080;28;20201;-72
2022/07/17 04:42:53;;;;;;;5.10;3.40;;;;;;;32.81;34.61;99757.44;5051686;28;20228;-71
2022/07/17 04:45:19;;;;;;;3.30;3.10;;;;;;;33.08;34.09;99747.81;5051405;28;20547;-71
2022/07/17 04:47:48;;;;;;;8.30;3.50;;;;;;;33.36;33.43;99750.81;5051915;28;20193;-71
2022/07/17 04:50:15;;;;;;;3.20;2.90;;;;;;;33.29;33.29;99762.38;5051642;28;20197;-71
2022/07/17 04:52:41;;;;;;;2.87;2.67;;;;;;;33.55;32.47;99759.38;5051137;28;20232;-71
2022/07/17 04:55:09;;;;;;;3.63;3.33;;;;;;;34.00;31.72;99771.19;5051292;28;20251;-70
2022/07/17 04:57:36;;;;;;;2.87;2.60;;;;;;;34.06;31.97;99747.75;5051265;28;20189;-69
2022/07/17 05:00:03;;;;;;;4.17;3.00;;;;;;;34.50;30.89;99766.94;5052066;28;20246;-69
2022/07/17 05:02:30;;;;;;;4.88;2.83;;;;;;;34.87;30.41;99757.44;5054914;28;20254;-70
2022/07/17 05:04:58;;;;;;;2.92;2.63;;;;;;;35.12;30.12;99766.47;5054995;28;20547;-70
2022/07/17 05:07:25;;;;;;;6.05;2.80;;;;;;;35.07;29.61;99766.72;5054828;28;20647;-70
2022/07/17 05:09:52;;;;;;;7.63;2.47;;;;;;;34.58;30.01;99770.75;5055378;28;20200;-70
2022/07/17 05:12:19;;;;;;;3.20;2.90;;;;;;;35.06;29.46;99771.44;5054689;28;20696;-70
2022/07/17 05:14:45;;;;;;;2.65;2.13;;;;;;;34.64;30.03;99772.09;5054771;28;20663;-70
2022/07/17 05:17:13;;;;;;;4.45;2.45;;;;;;;34.62;29.84;99783.47;5054721;28;20258;-70
2022/07/17 05:19:40;;;;;;;3.20;1.95;;;;;;;35.03;29.39;99783.19;5055018;28;20203;-70
2022/07/17 05:22:08;;;;;;;2.58;2.38;;;;;;;34.65;29.80;99782.78;5054647;28;20226;-69
2022/07/17 05:24:35;;;;;;;2.42;2.22;;;;;;;34.40;29.67;99785.91;5054568;28;20204;-70
2022/07/17 05:27:02;;;;;;;4.03;2.35;;;;;;;34.56;29.93;99790.41;5054901;28;20197;-70
2022/07/17 05:29:29;;;;;;;2.65;2.53;;;;;;;34.85;29.28;99781.06;5054458;28;20283;-69
2022/07/17 05:31:55;;;;;;;4.30;2.20;;;;;;;35.12;28.75;99785.81;5054765;28;20627;-69
2022/07/17 05:34:22;;;;;;;2.15;2.05;;;;;;;34.98;29.02;99790.94;5054902;28;20278;-69
2022/07/17 05:36:49;;;;;;;3.88;2.17;;;;;;;34.74;28.85;99796.47;5055480;28;20250;-69
2022/07/17 05:39:17;;;;;;;2.38;2.17;;;;;;;34.79;28.77;99794.28;5054295;28;20196;-70
2022/07/17 05:41:44;;;;;;;4.95;2.05;;;;;;;35.25;28.93;99795.66;5054740;28;20262;-70
2022/07/17 05:44:11;;;;;;;5.63;2.13;;;;;;;34.73;29.25;99805.91;5054546;28;20254;-70
2022/07/17 05:46:37;;;;;;;6.13;2.63;;;;;;;34.94;28.91;99807.38;5052354;28;20619;-69
2022/07/17 05:49:04;;;;;;;2.35;2.15;;;;;;;34.97;28.89;99800.34;5054126;28;20630;-69
2022/07/17 05:51:31;;;;;;;5.60;2.28;;;;;;;34.84;28.73;99807.88;5055248;28;20196;-70
2022/07/17 05:53:58;;;;;;;2.70;2.15;;;;;;;35.08;27.99;99815.28;5053601;28;20221;-70
2022/07/17 05:56:26;;;;;;;2.60;2.40;;;;;;;35.08;28.51;99813.34;5054225;28;20192;-70
2022/07/17 05:58:52;;;;;;;3.90;2.60;;;;;;;35.18;28.94;99818.34;5052856;28;20197;-71
2022/07/17 06:01:19;;;;;;;2.80;2.42;;;;;;;35.15;28.43;99824.59;5052287;28;20203;-72
2022/07/17 06:03:46;;;;;;;2.88;2.13;;;;;;;34.97;28.61;99822.44;5044035;28;20205;-72
2022/07/17 06:06:13;;;;;;;2.60;2.03;;;;;;;35.00;28.64;99821.75;5044531;28;20254;-72
2022/07/17 06:08:39;;;;;;;2.95;2.38;;;;;;;35.10;28.62;99821.25;5048699;28;20979;-70
2022/07/17 06:11:07;;;;;;;2.72;2.13;;;;;;;35.26;28.60;99813.84;5052933;28;20185;-71
2022/07/17 06:13:35;;;;;;;2.88;2.70;;;;;;;35.32;28.17;99818.00;5052562;28;20213;-70
2022/07/17 06:16:02;;;;;;;3.03;2.33;;;;;;;35.42;28.29;99817.47;5052557;28;20285;-70
2022/07/17 06:18:29;;;;;;;3.20;2.45;;;;;;;35.46;27.80;99818.38;5041364;28;20676;-71
2022/07/17 06:20:56;;;;;;;3.45;2.47;;;;;;;35.64;26.73;99820.47;5047555;28;20620;-70
2022/07/17 06:23:22;;;;;;;3.22;2.58;;;;;;;35.63;26.66;99818.06;5046049;28;20264;-72
2022/07/17 06:25:49;;;;;;;3.13;2.10;;;;;;;35.63;26.88;99812.53;5046681;28;20193;-72
2022/07/17 06:28:16;;;;;;;3.28;2.30;;;;;;;35.59;26.93;99808.88;5051779;28;20251;-71
2022/07/17 06:30:44;;;;;;;3.80;2.35;;;;;;;35.40;25.84;99809.53;5049731;28;20254;-70
2022/07/17 06:33:11;;;;;;;4.05;2.33;;;;;;;35.77;27.56;99801.91;5051993;28;20597;-71
2022/07/17 06:35:38;;;;;;;5.20;2.83;;;;;;;35.86;26.04;99797.00;5052169;28;20620;-71
2022/07/17 06:38:04;;;;;;;2.72;2.53;;;;;;;35.88;25.98;99798.25;5053507;28;20200;-72
2022/07/17 06:40:31;;;;;;;2.00;1.90;;;;;;;35.73;25.91;99809.28;5053199;28;20254;-70
2022/07/17 06:42:58;;;;;;;4.90;1.98;;;;;;;35.64;25.25;99812.19;5051493;28;20239;-70
2022/07/17 06:45:25;;;;;;;4.47;2.05;;;;;;;35.85;25.71;99814.78;5052688;28;20250;-70
2022/07/17 06:47:53;;;;;;;3.78;2.42;;;;;;;36.21;25.34;99806.22;5052919;28;20197;-70
2022/07/17 06:50:20;;;;;;;2.00;1.90;;;;;;;36.09;24.90;99803.53;5053682;28;20284;-71
2022/07/17 06:52:47;;;;;;;2.40;2.10;;;;;;;36.06;25.44;99807.00;5052931;28;20242;-71
2022/07/17 06:55:14;;;;;;;4.30;2.75;;;;;;;35.96;25.56;99815.81;5052551;28;20192;-71
2022/07/17 06:57:41;;;;;;;4.53;2.08;;;;;;;35.53;25.58;99813.06;5052762;28;20680;-70
2022/07/17 07:00:09;;;;;;;7.18;2.30;;;;;;;35.61;25.75;99799.09;5052988;28;20200;-71
2022/07/17 07:02:36;;;;;;;2.05;1.95;;;;;;;35.76;24.36;99811.38;5052621;28;20280;-70
2022/07/17 07:05:05;;;;;;;3.28;1.60;;;;;;;35.53;25.00;99813.06;5052313;28;20268;-70
2022/07/17 07:07:32;;;;;;;6.63;2.80;;;;;;;35.27;25.12;99812.69;5052932;28;20289;-70
2022/07/17 07:09:58;;;;;;;4.53;2.15;;;;;;;34.99;26.22;99814.63;5052396;28;20201;-70
2022/07/17 07:12:25;;;;;;;7.80;2.42;;;;;;;34.98;25.94;99807.50;5053309;28;20196;-72
2022/07/17 07:14:53;;;;;;;2.17;1.98;;;;;;;35.00;26.64;99805.19;5052403;28;20220;-72
2022/07/17 07:17:21;;;;;;;5.70;1.77;;;;;;;35.29;25.42;99814.00;5052282;28;20201;-71
2022/07/17 07:19:47;;;;;;;3.33;2.30;;;;;;;35.40;26.61;99811.53;5052401;28;20200;-71
2022/07/17 07:22:15;;;;;;;5.68;1.80;;;;;;;35.24;25.73;99805.09;5051953;28;20255;-71
2022/07/17 07:24:42;;;;;;;10.93;2.38;;;;;;;35.26;25.17;99813.84;5051318;28;20200;-70
2022/07/17 07:27:09;;;;;;;2.10;2.00;;;;;;;35.46;26.40;99807.34;5052298;28;20192;-71
2022/07/17 07:29:36;;;;;;;5.20;2.00;;;;;;;35.48;24.87;99807.81;5051866;28;20250;-71
2022/07/17 07:32:03;;;;;;;3.25;1.83;;;;;;;35.60;25.48;99807.75;5052134;28;20196;-71
2022/07/17 07:34:29;;;;;;;2.65;1.67;;;;;;;35.68;24.01;99809.53;5051602;28;20231;-71
2022/07/17 07:36:56;;;;;;;2.35;2.15;;;;;;;35.32;24.41;99813.25;5052149;28;20300;-71
2022/07/17 07:39:24;;;;;;;4.13;2.00;;;;;;;35.61;24.23;99810.16;5052291;28;20192;-71
2022/07/17 07:41:51;;;;;;;3.30;2.15;;;;;;;35.38;25.06;99819.34;5051905;28;20243;-71
2022/07/17 07:44:18;;;;;;;2.55;2.10;;;;;;;35.64;24.67;99826.00;5052469;28;20211;-71
2022/07/17 07:46:45;;;;;;;2.28;2.08;;;;;;;35.40;24.46;99814.28;5051922;28;20283;-71
2022/07/17 07:49:12;;;;;;;2.53;1.80;;;;;;;35.61;24.01;99814.88;5052073;28;20197;-71
2022/07/17 07:51:39;;;;;;;3.72;2.10;;;;;;;35.43;24.40;99810.81;5052078;28;20204;-71
2022/07/17 07:54:05;;;;;;;2.22;1.95;;;;;;;35.33;23.96;99825.13;5051598;28;20754;-71
2022/07/17 07:56:33;;;;;;;1.95;1.85;;;;;;;34.94;24.30;99823.16;5051802;28;20193;-71
2022/07/17 07:59:00;;;;;;;1.90;1.80;;;;;;;35.14;24.63;99824.91;5051605;28;20616;-71
2022/07/17 08:01:27;;;;;;;5.22;2.83;;;;;;;35.33;24.88;99827.91;5052116;28;20193;-71
2022/07/17 08:03:54;;;;;;;1.90;1.80;;;;;;;35.70;24.11;99826.56;5051483;28;20667;-71
2022/07/17 08:06:21;;;;;;;7.35;2.10;;;;;;;35.45;23.82;99825.09;5051507;28;20215;-72
2022/07/17 08:08:47;;;;;;;5.18;1.88;;;;;;;35.36;24.87;99836.28;5051468;28;20250;-70
2022/07/17 08:11:14;;;;;;;2.45;1.60;;;;;;;35.80;24.57;99835.19;5051758;28;20189;-70
2022/07/17 08:13:43;;;;;;;2.10;2.00;;;;;;;36.16;23.96;99825.84;5051478;28;20242;-73
2022/07/17 08:16:09;;;;;;;9.30;3.08;;;;;;;36.37;24.11;99831.91;5051574;28;20694;-70
2022/07/17 08:18:36;;;;;;;2.00;1.90;;;;;;;36.54;23.19;99831.56;5052341;28;20601;-70
2022/07/17 08:21:03;;;;;;;1.63;1.42;;;;;;;36.65;23.87;99835.38;5051588;28;20201;-70
2022/07/17 08:23:29;;;;;;;2.55;1.92;;;;;;;36.53;22.57;99825.22;5051486;28;20200;-70
2022/07/17 08:25:56;;;;;;;5.55;2.20;;;;;;;36.57;22.85;99826.09;5051710;28;20188;-71
2022/07/17 08:28:24;;;;;;;11.70;2.35;;;;;;;36.46;22.23;99827.03;5051504;28;20246;-71
2022/07/17 08:30:52;;;;;;;10.30;2.05;;;;;;;35.92;23.41;99826.00;5051276;28;20200;-70
2022/07/17 08:33:19;;;;;;;4.18;2.03;;;;;;;36.06;23.17;99827.19;5052197;28;20227;-71
2022/07/17 08:35:46;;;;;;;1.70;1.60;;;;;;;36.53;22.37;99832.72;5052892;28;20288;-71
2022/07/17 08:38:13;;;;;;;1.80;1.70;;;;;;;36.34;22.05;99827.13;5055646;28;20200;-71
2022/07/17 08:40:40;;;;;;;1.55;1.40;;;;;;;36.32;22.20;99829.44;5055211;28;20624;-71
2022/07/17 08:43:08;;;;;;;2.53;1.42;;;;;;;36.25;22.48;99827.28;5056041;28;20232;-69
2022/07/17 08:45:35;;;;;;;5.82;1.73;;;;;;;36.42;22.56;99823.38;5055074;28;20204;-70
2022/07/17 08:48:04;;;;;;;2.55;1.95;;;;;;;36.42;22.12;99824.16;5055016;28;20238;-70
2022/07/17 08:50:33;;;;;;;4.50;2.00;;;;;;;36.30;22.70;99821.47;5054931;28;20597;-71
2022/07/17 08:53:00;;;;;;;5.55;1.88;;;;;;;36.38;21.24;99823.25;5054972;28;20685;-70
2022/07/17 08:55:27;;;;;;;2.30;2.00;;;;;;;36.34;21.85;99821.59;5054802;28;20217;-70
2022/07/17 08:57:54;;;;;;;2.13;1.95;;;;;;;35.84;22.23;99821.47;5054926;28;20250;-70
2022/07/17 09:00:23;;;;;;;1.77;1.67;;;;;;;35.80;22.54;99815.81;5054857;28;20200;-70
2022/07/17 09:02:56;;;;;;;2.75;1.60;;;;;;;35.95;22.88;99814.22;5055098;28;20189;-70
2022/07/17 09:05:25;;;;;;;4.10;1.90;;;;;;;35.82;23.30;99819.06;5054557;28;20633;-70
2022/07/17 09:07:52;;;;;;;1.80;1.67;;;;;;;36.37;22.88;99813.38;5054597;28;20258;-70
2022/07/17 09:10:19;;;;;;;3.53;2.00;;;;;;;36.23;22.69;99828.81;5054945;28;20266;-70
2022/07/17 09:12:46;;;;;;;3.63;2.03;;;;;;;36.63;22.52;99821.09;5054526;28;20661;-70
2022/07/17 09:15:17;;;;;;;2.53;1.88;;;;;;;36.43;22.01;99830.50;5054811;28;20216;-70
2022/07/17 09:17:54;;;;;;;3.35;1.70;;;;;;;36.54;22.13;99831.56;5054755;28;20196;-70
2022/07/17 09:20:23;;;;;;;2.47;1.90;;;;;;;36.65;22.08;99819.56;5054445;28;20664;-70
2022/07/17 09:23:03;;;;;;;2.90;1.70;;;;;;;36.67;21.64;99827.53;5054661;28;20623;-70
2022/07/17 09:25:34;;;;;;;2.90;2.03;;;;;;;36.50;22.33;99822.38;5055200;28;20192;-70
2022/07/17 09:28:03;;;;;;;4.18;2.35;;;;;;;36.15;22.57;99825.03;5054521;28;20549;-70
2022/07/17 09:30:31;;;;;;;1.83;1.67;;;;;;;36.23;22.16;99814.97;5054644;28;20279;-70
2022/07/17 09:32:58;;;;;;;5.32;1.95;;;;;;;36.20;21.68;99802.63;5054275;28;20196;-70
2022/07/17 09:35:25;;;;;;;1.85;1.75;;;;;;;35.99;22.52;99815.94;5054190;28;20221;-70
2022/07/17 09:37:53;;;;;;;3.53;2.00;;;;;;;35.87;22.34;99817.97;5055248;28;20197;-70
2022/07/17 09:43:08;;;;;;;5.28;2.00;;;;;;;36.02;23.00;99808.88;5054272;28;20251;-69
2022/07/17 09:45:36;;;;;;;3.88;2.08;;;;;;;36.27;21.94;99816.69;5054059;28;20197;-68
2022/07/17 09:48:05;;;;;;;3.25;2.05;;;;;;;35.96;23.16;99818.59;5052829;28;20707;-68
2022/07/17 09:50:33;;;;;;;2.88;1.83;;;;;;;36.27;22.12;99816.69;5054058;28;20250;-68
2022/07/17 09:53:02;;;;;;;2.55;2.10;;;;;;;35.60;23.37;99813.28;5054068;28;20193;-68
2022/07/17 09:55:31;;;;;;;7.45;2.60;;;;;;;35.57;23.34;99816.72;5053133;28;20598;-67
2022/07/17 09:58:00;;;;;;;1.85;1.75;;;;;;;35.65;23.17;99804.72;5054008;28;20288;-68
2022/07/17 10:00:27;;;;;;;1.92;1.83;;;;;;;35.78;23.34;99822.88;5053872;28;20288;-71
2022/07/17 10:02:55;;;;;;;3.13;1.80;;;;;;;35.64;23.19;99814.97;5052178;28;20188;-72
2022/07/17 10:05:21;;;;;;;2.00;1.90;;;;;;;35.90;21.79;99815.31;5052234;28;20211;-70
2022/07/17 10:07:49;;;;;;;2.10;1.52;;;;;;;35.86;21.83;99811.66;5050073;28;20677;-71
2022/07/17 10:10:17;;;;;;;2.85;2.15;;;;;;;35.82;22.42;99812.69;5050845;28;20648;-71
2022/07/17 10:12:49;;;;;;;3.10;1.77;;;;;;;36.06;22.05;99816.13;5051867;28;20667;-73
2022/07/17 10:15:16;;;;;;;2.67;1.80;;;;;;;36.19;21.97;99809.34;5051134;28;20212;-70
2022/07/17 10:17:43;;;;;;;1.77;1.67;;;;;;;36.08;22.20;99807.44;5052651;28;20192;-71
2022/07/17 10:20:11;;;;;;;2.10;1.90;;;;;;;35.99;21.84;99802.09;5050543;28;20208;-71
2022/07/17 10:22:42;;;;;;;1.77;1.67;;;;;;;36.28;21.68;99800.88;5051232;28;20283;-70
2022/07/17 10:25:15;;;;;;;1.95;1.85;;;;;;;36.50;20.86;99800.22;5051375;28;20199;-68
2022/07/17 10:27:49;;;;;;;6.78;1.70;;;;;;;36.34;21.22;99796.69;5050536;28;20189;-70
2022/07/17 10:30:23;;;;;;;1.92;1.70;;;;;;;36.38;21.57;99794.81;5051738;28;20192;-70
2022/07/17 10:32:56;;;;;;;2.28;1.63;;;;;;;36.30;21.87;99793.03;5050685;28;20181;-69
2022/07/17 10:35:22;;;;;;;2.08;1.73;;;;;;;36.27;21.29;99791.78;5050992;28;20647;-70
2022/07/17 10:37:49;;;;;;;2.10;1.98;;;;;;;36.13;22.53;99787.84;5050057;28;20672;-70
2022/07/17 10:40:18;;;;;;;2.67;2.20;;;;;;;36.40;22.38;99782.19;5051026;28;20258;-71
2022/07/17 10:42:56;;;;;;;2.42;2.20;;;;;;;36.57;22.13;99783.75;5051943;28;20232;-71
2022/07/17 10:45:26;;;;;;;1.65;1.55;;;;;;;36.29;21.87;99791.44;5050902;28;20199;-71
2022/07/17 10:47:56;;;;;;;3.40;1.50;;;;;;;36.06;22.17;99769.09;5052201;28;20208;-70
2022/07/17 10:50:26;;;;;;;3.60;1.90;;;;;;;36.40;21.46;99759.25;5050860;28;20614;-71
2022/07/17 10:53:08;;;;;;;2.03;1.88;;;;;;;36.64;21.65;99764.53;5050797;28;20204;-71
2022/07/17 10:55:36;;;;;;;3.35;2.08;;;;;;;36.50;21.83;99767.00;5049869;28;20215;-72
2022/07/17 10:58:14;;;;;;;2.05;1.80;;;;;;;36.32;21.93;99751.94;5051322;28;20733;-71
2022/07/17 11:00:41;;;;;;;6.30;2.88;;;;;;;36.10;21.97;99755.34;5048453;28;20188;-71
2022/07/17 11:03:12;;;;;;;2.38;1.92;;;;;;;36.18;22.65;99762.66;5050161;28;20192;-71
2022/07/17 11:05:39;;;;;;;2.08;1.98;;;;;;;36.20;21.55;99760.31;5050119;28;20270;-72
2022/07/17 11:08:09;;;;;;;2.50;2.30;;;;;;;35.73;21.67;99751.22;5049749;28;20204;-71
2022/07/17 11:10:38;;;;;;;2.90;2.70;;;;;;;36.09;21.48;99748.22;5050805;28;20211;-66
2022/07/17 11:13:11;;;;;;;4.10;3.80;;;;;;;36.23;21.93;99740.25;5050055;28;20720;-65
2022/07/17 11:15:40;;;;;;;3.45;2.45;;;;;;;36.37;21.59;99749.69;5031236;28;20766;-65
2022/07/17 11:18:12;;;;;;;2.17;1.98;;;;;;;36.45;21.56;99740.38;5035586;28;20250;-65
2022/07/17 11:20:48;;;;;;;2.03;1.80;;;;;;;36.53;20.87;99742.16;5052425;28;20644;-67
2022/07/17 11:23:14;;;;;;;2.13;1.92;;;;;;;36.63;21.66;99738.03;5052016;28;20271;-66
2022/07/17 11:25:52;;;;;;;2.17;2.08;;;;;;;36.45;21.18;99734.84;5051591;28;20200;-65
2022/07/17 11:28:30;;;;;;;2.35;2.10;;;;;;;36.48;20.74;99745.22;5051635;28;20188;-69
2022/07/17 11:30:57;;;;;;;1.77;1.55;;;;;;;36.25;20.03;99743.50;5051410;28;20192;-67
2022/07/17 11:33:23;;;;;;;1.70;1.60;;;;;;;36.17;19.84;99733.38;5050818;28;20258;-67
2022/07/17 11:35:50;;;;;;;1.55;1.55;;;;;;;35.69;20.14;99719.91;5051551;28;20220;-66
2022/07/17 11:38:24;;;;;;;1.80;1.70;;;;;;;35.88;20.16;99720.81;5051559;28;20219;-67